createdAt,value
2019-06-10T00:02:13.004Z,19.10
2019-06-10T00:04:44.418Z,19.10
2019-06-10T00:07:14.983Z,19.00
2019-06-10T00:09:45.744Z,19.20
2019-06-10T00:12:14.663Z,19.30
2019-06-10T00:14:56.679Z,19.20
2019-06-10T00:17:28.649Z,19.20
2019-06-10T00:19:59.181Z,19.20
2019-06-10T00:22:35.884Z,19.20
2019-06-10T00:25:05.378Z,19.10
2019-06-10T00:27:33.277Z,19.10
2019-06-10T00:30:06.559Z,19.20
2019-06-10T00:32:34.373Z,19.30
2019-06-10T00:35:07.788Z,19.20
2019-06-10T00:37:42.365Z,19.10
2019-06-10T00:40:15.683Z,19.00
2019-06-10T00:42:45.089Z,18.90
2019-06-10T00:45:21.395Z,18.80
2019-06-10T00:48:07.571Z,18.60
2019-06-10T00:50:30.850Z,18.60
2019-06-10T00:53:07.585Z,18.40
2019-06-10T00:55:41.545Z,18.60
2019-06-10T00:58:12.017Z,18.50
2019-06-10T01:00:51.883Z,18.50
2019-06-10T01:03:22.160Z,18.50
2019-06-10T01:05:52.476Z,18.50
2019-06-10T01:08:32.331Z,18.50
2019-06-10T01:11:09.749Z,18.40
2019-06-10T01:13:34.554Z,18.50
2019-06-10T01:16:15.554Z,18.40
2019-06-10T01:18:50.321Z,18.30
2019-06-10T01:21:26.282Z,18.20
2019-06-10T01:23:57.081Z,18.30
2019-06-10T01:26:43.091Z,18.30
2019-06-10T01:29:18.258Z,18.30
2019-06-10T01:31:51.377Z,18.30
2019-06-10T01:34:22.064Z,18.20
2019-06-10T01:37:01.533Z,18.20
2019-06-10T01:39:33.006Z,18.20
2019-06-10T01:42:04.281Z,18.20
2019-06-10T01:44:45.792Z,18.10
2019-06-10T01:47:17.741Z,18.20
2019-06-10T01:49:46.221Z,18.10
2019-06-10T01:52:26.747Z,18.20
2019-06-10T01:55:01.563Z,18.10
2019-06-10T01:57:51.801Z,18.10
2019-06-10T02:00:25.991Z,18.10
2019-06-10T02:02:52.480Z,18.20
2019-06-10T02:05:20.418Z,18.20
2019-06-10T02:07:57.703Z,18.30
2019-06-10T02:10:32.573Z,18.40
2019-06-10T02:13:01.355Z,18.40
2019-06-10T02:15:28.725Z,18.40
2019-06-10T02:18:01.707Z,18.40
2019-06-10T02:20:28.897Z,18.30
2019-06-10T02:23:01.897Z,18.20
2019-06-10T02:25:30.577Z,18.20
2019-06-10T02:28:02.489Z,18.10
2019-06-10T02:30:41.686Z,18.10
2019-06-10T02:33:02.282Z,18.00
2019-06-10T02:35:44.201Z,18.10
2019-06-10T02:38:09.896Z,18.00
2019-06-10T02:40:53.584Z,18.00
2019-06-10T02:43:33.310Z,18.00
2019-06-10T02:45:59.377Z,18.00
2019-06-10T02:48:34.969Z,18.10
2019-06-10T02:51:05.796Z,18.00
2019-06-10T02:53:35.890Z,18.00
2019-06-10T02:56:04.138Z,17.90
2019-06-10T02:58:39.146Z,17.80
2019-06-10T03:01:04.187Z,17.90
2019-06-10T03:03:43.270Z,17.90
2019-06-10T03:06:07.098Z,17.90
2019-06-10T03:08:36.583Z,17.80
2019-06-10T03:11:04.305Z,17.80
2019-06-10T03:13:34.155Z,17.80
2019-06-10T03:16:34.474Z,17.80
2019-06-10T03:19:02.958Z,17.80
2019-06-10T03:21:32.865Z,17.80
2019-06-10T03:24:02.483Z,17.70
2019-06-10T03:26:28.865Z,17.80
2019-06-10T03:28:57.672Z,17.80
2019-06-10T03:31:33.718Z,17.80
2019-06-10T03:33:56.619Z,17.80
2019-06-10T03:36:25.742Z,17.80
2019-06-10T03:38:53.975Z,17.80
2019-06-10T03:41:24.691Z,17.80
2019-06-10T03:43:50.264Z,17.70
2019-06-10T03:46:23.816Z,17.70
2019-06-10T03:48:52.489Z,17.70
2019-06-10T03:51:21.854Z,17.60
2019-06-10T03:53:50.128Z,17.50
2019-06-10T03:56:19.152Z,17.40
2019-06-10T03:58:46.682Z,17.40
2019-06-10T04:01:14.032Z,17.30
2019-06-10T04:03:42.927Z,17.40
2019-06-10T04:06:13.057Z,17.40
2019-06-10T04:08:43.406Z,17.30
2019-06-10T04:11:12.161Z,17.40
2019-06-10T04:13:43.011Z,17.40
2019-06-10T04:16:12.792Z,17.50
2019-06-10T04:18:43.037Z,17.50
2019-06-10T04:21:12.881Z,17.40
2019-06-10T04:23:42.331Z,17.40
2019-06-10T04:26:17.560Z,17.40
2019-06-10T04:28:45.916Z,17.50
2019-06-10T04:31:13.625Z,17.50
2019-06-10T04:33:42.081Z,17.60
2019-06-10T04:36:09.401Z,17.50
2019-06-10T04:38:37.180Z,17.40
2019-06-10T04:41:07.040Z,17.30
2019-06-10T04:43:35.469Z,17.30
2019-06-10T04:46:03.754Z,17.30
2019-06-10T04:48:33.326Z,17.30
2019-06-10T04:51:02.829Z,17.20
2019-06-10T04:53:33.103Z,17.10
2019-06-10T04:56:02.708Z,17.20
2019-06-10T04:58:33.075Z,17.20
2019-06-10T05:01:02.810Z,17.20
2019-06-10T05:03:32.970Z,17.40
2019-06-10T05:06:03.018Z,17.40
2019-06-10T05:08:33.583Z,17.60
2019-06-10T05:11:03.533Z,17.50
2019-06-10T05:13:33.496Z,17.60
2019-06-10T05:16:08.380Z,17.60
2019-06-10T05:18:36.292Z,17.60
2019-06-10T05:21:03.592Z,17.70
2019-06-10T05:23:33.615Z,17.80
2019-06-10T05:26:02.882Z,17.80
2019-06-10T05:28:34.183Z,17.90
2019-06-10T05:31:02.826Z,17.90
2019-06-10T05:36:04.904Z,18.10
2019-06-10T05:38:35.436Z,18.20
2019-06-10T05:41:03.157Z,18.20
2019-06-10T05:43:34.315Z,18.20
2019-06-10T05:46:02.945Z,18.30
2019-06-10T05:48:33.060Z,18.40
2019-06-10T05:51:03.809Z,18.40
2019-06-10T05:53:31.508Z,18.50
2019-06-10T05:56:02.030Z,18.50
2019-06-10T05:58:29.351Z,18.50
2019-06-10T06:00:59.843Z,18.40
2019-06-10T06:03:27.795Z,18.40
2019-06-10T06:05:56.532Z,18.40
2019-06-10T06:08:25.100Z,18.40
2019-06-10T06:10:52.810Z,18.50
2019-06-10T06:13:23.108Z,18.50
2019-06-10T06:15:52.829Z,18.50
2019-06-10T06:18:22.549Z,18.50
2019-06-10T06:20:52.487Z,18.40
2019-06-10T06:23:23.177Z,18.50
2019-06-10T06:25:52.954Z,18.50
2019-06-10T06:28:22.864Z,18.60
2019-06-10T06:30:49.680Z,18.70
2019-06-10T06:33:17.748Z,18.70
2019-06-10T06:35:46.627Z,18.70
2019-06-10T06:38:13.991Z,18.70
2019-06-10T06:40:43.526Z,18.80
2019-06-10T06:43:12.055Z,18.90
2019-06-10T06:45:42.615Z,19.10
2019-06-10T06:48:12.311Z,19.30
2019-06-10T06:50:59.838Z,19.40
2019-06-10T06:53:20.970Z,19.60
2019-06-10T06:55:43.327Z,19.80
2019-06-10T06:58:12.580Z,20.00
2019-06-10T07:00:59.291Z,20.00
2019-06-10T07:03:25.491Z,20.10
2019-06-10T07:06:05.516Z,20.20
2019-06-10T07:08:34.480Z,20.40
2019-06-10T07:11:04.251Z,20.40
2019-06-10T07:13:35.440Z,20.40
2019-06-10T07:16:03.576Z,20.40
2019-06-10T07:18:38.938Z,20.50
2019-06-10T07:21:02.804Z,20.60
2019-06-10T07:23:34.149Z,20.60
2019-06-10T07:26:02.095Z,20.60
2019-06-10T07:28:33.950Z,20.60
2019-06-10T07:31:03.033Z,20.50
2019-06-10T07:33:34.811Z,20.30
2019-06-10T07:36:03.302Z,20.10
2019-06-10T07:38:35.251Z,20.10
2019-06-10T07:41:02.900Z,19.90
2019-06-10T07:43:37.521Z,19.90
2019-06-10T07:46:03.431Z,19.90
2019-06-10T07:48:35.292Z,19.90
2019-06-10T07:51:03.837Z,19.90
2019-06-10T07:53:46.632Z,19.90
2019-06-10T07:56:15.667Z,20.00
2019-06-10T07:58:47.482Z,20.00
2019-06-10T08:01:15.889Z,20.10
2019-06-10T08:03:46.400Z,20.10
2019-06-10T08:06:36.410Z,20.30
2019-06-10T08:09:05.300Z,20.30
2019-06-10T08:11:37.166Z,20.20
2019-06-10T08:14:04.820Z,20.30
2019-06-10T08:16:37.882Z,20.30
2019-06-10T08:19:31.538Z,20.60
2019-06-10T08:21:38.866Z,20.80
2019-06-10T08:24:06.255Z,20.80
2019-06-10T08:26:35.350Z,20.80
2019-06-10T08:29:04.374Z,20.80
2019-06-10T08:31:33.245Z,20.80
2019-06-10T08:34:02.969Z,20.80
2019-06-10T08:36:33.137Z,20.80
2019-06-10T08:38:59.931Z,20.90
2019-06-10T08:41:27.081Z,20.90
2019-06-10T08:43:54.509Z,20.90
2019-06-10T08:46:22.729Z,20.80
2019-06-10T08:48:57.317Z,20.80
2019-06-10T08:51:24.832Z,20.70
2019-06-10T08:53:55.485Z,20.70
2019-06-10T08:56:22.652Z,20.70
2019-06-10T08:58:51.598Z,20.70
2019-06-10T09:01:22.138Z,20.70
2019-06-10T09:03:51.263Z,20.70
2019-06-10T09:06:19.761Z,20.80
2019-06-10T09:08:49.928Z,20.90
2019-06-10T09:11:20.468Z,21.10
2019-06-10T09:13:48.849Z,21.00
2019-06-10T09:16:19.574Z,21.20
2019-06-10T09:18:49.570Z,21.10
2019-06-10T09:21:19.422Z,21.10
2019-06-10T09:23:51.514Z,21.40
2019-06-10T09:26:19.037Z,21.80
2019-06-10T09:28:52.365Z,22.30
2019-06-10T09:31:23.748Z,23.00
2019-06-10T09:33:53.399Z,23.30
2019-06-10T09:36:23.510Z,23.50
2019-06-10T09:38:54.952Z,23.60
2019-06-10T09:41:36.019Z,23.40
2019-06-10T09:43:56.495Z,23.20
2019-06-10T09:46:23.311Z,23.10
2019-06-10T09:48:55.759Z,23.10
2019-06-10T09:51:23.874Z,23.20
2019-06-10T09:54:02.346Z,23.30
2019-06-10T09:56:28.057Z,23.40
2019-06-10T09:58:55.666Z,23.40
2019-06-10T10:01:24.712Z,23.40
2019-06-10T10:03:59.249Z,23.40
2019-06-10T10:06:23.822Z,23.70
2019-06-10T10:08:57.542Z,23.80
2019-06-10T10:11:27.598Z,24.30
2019-06-10T10:13:53.167Z,25.00
2019-06-10T10:16:26.045Z,25.80
2019-06-10T10:19:00.279Z,26.40
2019-06-10T10:21:24.624Z,27.00
2019-06-10T10:24:06.202Z,27.30
2019-06-10T10:26:25.084Z,27.20
2019-06-10T10:28:56.859Z,27.40
2019-06-10T10:31:27.833Z,27.90
2019-06-10T10:33:56.337Z,27.80
2019-06-10T10:36:27.174Z,27.40
2019-06-10T10:38:54.709Z,27.00
2019-06-10T10:41:25.325Z,26.50
2019-06-10T10:43:57.779Z,25.80
2019-06-10T10:46:24.824Z,25.20
2019-06-10T10:48:55.195Z,24.80
2019-06-10T10:51:23.708Z,24.50
2019-06-10T10:54:15.406Z,24.50
2019-06-10T10:56:22.370Z,24.60
2019-06-10T10:58:54.897Z,24.40
2019-06-10T11:01:23.187Z,24.50
2019-06-10T11:03:51.420Z,24.30
2019-06-10T11:06:19.429Z,24.00
2019-06-10T11:08:50.038Z,23.60
2019-06-10T11:11:17.586Z,23.30
2019-06-10T11:13:53.331Z,23.00
2019-06-10T11:16:17.880Z,22.80
2019-06-10T11:18:45.276Z,22.60
2019-06-10T11:21:13.530Z,22.40
2019-06-10T11:23:43.233Z,22.20
2019-06-10T11:26:13.204Z,22.10
2019-06-10T11:29:02.782Z,22.10
2019-06-10T11:31:29.587Z,22.50
2019-06-10T11:33:58.729Z,23.00
2019-06-10T11:36:28.681Z,23.50
2019-06-10T11:38:59.035Z,23.90
2019-06-10T11:41:32.509Z,24.30
2019-06-10T11:43:59.776Z,24.50
2019-06-10T11:46:29.581Z,24.50
2019-06-10T11:48:59.035Z,24.40
2019-06-10T11:51:33.437Z,24.30
2019-06-10T11:54:03.404Z,24.20
2019-06-10T11:56:33.646Z,24.60
2019-06-10T11:59:08.974Z,25.00
2019-06-10T12:01:32.121Z,25.40
2019-06-10T12:04:03.974Z,25.50
2019-06-10T12:06:33.944Z,25.20
2019-06-10T12:09:02.998Z,24.80
2019-06-10T12:11:34.352Z,24.30
2019-06-10T12:14:04.585Z,23.90
2019-06-10T12:17:15.515Z,23.60
2019-06-10T12:19:03.599Z,23.40
2019-06-10T12:21:33.070Z,23.10
2019-06-10T12:24:12.623Z,22.90
2019-06-10T12:26:45.438Z,22.80
2019-06-10T12:29:15.749Z,22.60
2019-06-10T12:31:57.861Z,22.50
2019-06-10T12:34:28.136Z,22.50
2019-06-10T12:37:07.392Z,22.30
2019-06-10T12:39:35.046Z,22.40
2019-06-10T12:42:06.150Z,22.40
2019-06-10T12:44:53.835Z,22.40
2019-06-10T12:47:23.668Z,22.50
2019-06-10T12:50:01.761Z,22.60
2019-06-10T12:52:34.748Z,22.60
2019-06-10T12:55:04.050Z,22.50
2019-06-10T12:57:44.928Z,22.60
2019-06-10T13:00:23.140Z,22.40
2019-06-10T13:02:50.459Z,22.20
2019-06-10T13:05:25.602Z,22.10
2019-06-10T13:08:02.825Z,22.10
2019-06-10T13:11:02.069Z,22.10
2019-06-10T13:13:42.561Z,22.20
2019-06-10T13:16:19.361Z,22.20
2019-06-10T13:18:53.884Z,22.10
2019-06-10T13:21:25.820Z,22.10
2019-06-10T13:23:56.058Z,22.20
2019-06-10T13:26:26.852Z,22.20
2019-06-10T13:28:57.115Z,22.10
2019-06-10T13:31:29.371Z,22.10
2019-06-10T13:34:05.034Z,21.90
2019-06-10T13:36:33.112Z,21.90
2019-06-10T13:39:13.476Z,21.80
2019-06-10T13:41:46.063Z,21.80
2019-06-10T13:44:23.038Z,21.80
2019-06-10T13:46:55.298Z,21.70
2019-06-10T13:49:25.515Z,21.60
2019-06-10T13:51:56.496Z,21.60
2019-06-10T13:54:27.569Z,21.50
2019-06-10T13:59:52.023Z,21.40
2019-06-10T14:02:24.629Z,21.30
2019-06-10T14:04:53.268Z,21.10
2019-06-10T14:07:33.120Z,21.00
2019-06-10T14:10:08.318Z,21.00
2019-06-10T14:12:48.800Z,20.90
2019-06-10T14:15:23.428Z,20.80
2019-06-10T14:17:54.985Z,20.90
2019-06-10T14:20:26.562Z,20.80
2019-06-10T14:22:58.359Z,20.80
2019-06-10T14:25:29.565Z,20.90
2019-06-10T14:27:57.873Z,20.90
2019-06-10T14:30:32.317Z,20.90
2019-06-10T14:33:02.353Z,21.00
2019-06-10T14:35:34.945Z,21.10
2019-06-10T14:38:03.492Z,21.10
2019-06-10T14:40:42.934Z,21.20
2019-06-10T14:43:23.294Z,21.30
2019-06-10T14:45:54.503Z,21.30
2019-06-10T14:48:27.264Z,21.20
2019-06-10T14:51:03.367Z,21.20
2019-06-10T14:53:33.730Z,21.20
2019-06-10T14:56:13.183Z,21.20
2019-06-10T14:58:49.295Z,21.10
2019-06-10T15:01:24.082Z,21.00
2019-06-10T15:03:46.197Z,20.90
2019-06-10T15:06:13.484Z,20.80
2019-06-10T15:08:46.656Z,20.70
2019-06-10T15:11:14.145Z,20.60
2019-06-10T15:13:46.902Z,20.60
2019-06-10T15:16:14.297Z,20.60
2019-06-10T15:18:45.651Z,20.50
2019-06-10T15:21:13.258Z,20.50
2019-06-10T15:23:44.727Z,20.40
2019-06-10T15:26:14.383Z,20.40
2019-06-10T15:28:46.198Z,20.30
2019-06-10T15:31:16.032Z,20.40
2019-06-10T15:33:52.467Z,20.30
2019-06-10T15:36:19.972Z,20.30
2019-06-10T15:38:52.519Z,20.30
2019-06-10T15:41:21.524Z,20.40
2019-06-10T15:43:50.280Z,20.40
2019-06-10T15:46:17.974Z,20.40
2019-06-10T15:48:49.562Z,20.40
2019-06-10T15:51:19.842Z,20.40
2019-06-10T15:53:50.113Z,20.40
2019-06-10T15:56:31.407Z,20.50
2019-06-10T15:58:52.180Z,20.60
2019-06-10T16:01:22.454Z,20.70
2019-06-10T16:03:52.844Z,20.80
2019-06-10T16:06:22.720Z,20.80
2019-06-10T16:08:52.357Z,20.70
2019-06-10T16:11:20.557Z,20.80
2019-06-10T16:13:53.589Z,20.80
2019-06-10T16:16:21.082Z,20.90
2019-06-10T16:18:57.376Z,20.80
2019-06-10T16:21:24.563Z,20.80
2019-06-10T16:23:54.418Z,20.70
2019-06-10T16:26:26.238Z,20.70
2019-06-10T16:28:54.241Z,20.70
2019-06-10T16:31:25.591Z,20.80
2019-06-10T16:33:54.835Z,20.80
2019-06-10T16:36:25.771Z,20.70
2019-06-10T16:38:56.053Z,20.70
2019-06-10T16:41:26.059Z,20.50
2019-06-10T16:43:55.963Z,20.50
2019-06-10T16:46:23.178Z,20.40
2019-06-10T16:48:52.753Z,20.30
2019-06-10T16:51:21.949Z,20.20
2019-06-10T16:53:52.823Z,20.10
2019-06-10T16:56:24.360Z,20.10
2019-06-10T16:58:52.294Z,20.20
2019-06-10T17:01:24.943Z,20.10
2019-06-10T17:03:52.539Z,20.00
2019-06-10T17:06:23.320Z,19.90
2019-06-10T17:08:49.641Z,20.10
2019-06-10T17:11:21.402Z,20.00
2019-06-10T17:13:49.299Z,20.00
2019-06-10T17:16:18.275Z,19.90
2019-06-10T17:18:45.863Z,20.00
2019-06-10T17:21:13.318Z,20.00
2019-06-10T17:23:43.536Z,20.00
2019-06-10T17:26:11.007Z,20.00
2019-06-10T17:28:42.638Z,20.10
2019-06-10T17:31:09.425Z,20.10
2019-06-10T17:33:42.454Z,20.10
2019-06-10T17:36:08.777Z,19.90
2019-06-10T17:38:42.910Z,19.90
2019-06-10T17:41:10.485Z,19.90
2019-06-10T17:43:42.888Z,19.80
2019-06-10T17:46:25.969Z,19.80
2019-06-10T17:48:52.217Z,19.70
2019-06-10T17:51:24.569Z,19.70
2019-06-10T17:53:53.088Z,19.60
2019-06-10T17:56:26.056Z,19.60
2019-06-10T17:58:57.945Z,19.50
2019-06-10T18:01:25.496Z,19.50
2019-06-10T18:03:54.540Z,19.50
2019-06-10T18:06:25.809Z,19.40
2019-06-10T18:08:53.793Z,19.50
2019-06-10T18:11:26.012Z,19.60
2019-06-10T18:13:52.581Z,19.50
2019-06-10T18:16:25.936Z,19.50
2019-06-10T18:18:53.485Z,19.60
2019-06-10T18:21:26.366Z,19.50
2019-06-10T18:23:53.977Z,19.50
2019-06-10T18:26:26.954Z,19.40
2019-06-10T18:29:02.024Z,19.50
2019-06-10T18:31:25.944Z,19.40
2019-06-10T18:33:53.321Z,19.30
2019-06-10T18:36:24.155Z,19.40
2019-06-10T18:38:52.526Z,19.40
2019-06-10T18:41:22.153Z,19.40
2019-06-10T18:43:50.192Z,19.20
2019-06-10T18:46:17.641Z,19.10
2019-06-10T18:48:49.053Z,19.10
2019-06-10T18:51:16.326Z,19.20
2019-06-10T18:53:48.659Z,19.20
2019-06-10T18:56:16.110Z,19.30
2019-06-10T18:58:44.747Z,19.10
2019-06-10T19:01:13.657Z,19.00
2019-06-10T19:03:43.078Z,19.00
2019-06-10T19:06:12.505Z,19.10
2019-06-10T19:08:41.337Z,19.10
2019-06-10T19:11:11.823Z,19.20
2019-06-10T19:13:40.982Z,19.30
2019-06-10T19:16:12.951Z,19.30
2019-06-10T19:18:42.970Z,19.30
2019-06-10T19:21:12.993Z,19.20
2019-06-10T19:23:43.556Z,19.20
2019-06-10T19:26:13.388Z,19.20
2019-06-10T19:28:44.781Z,19.20
2019-06-10T19:31:13.330Z,19.10
2019-06-10T19:33:44.773Z,19.10
2019-06-10T19:36:12.824Z,19.10
2019-06-10T19:38:42.888Z,19.10
2019-06-10T19:41:12.857Z,19.10
2019-06-10T19:43:41.505Z,19.10
2019-06-10T19:46:13.680Z,19.00
2019-06-10T19:48:50.950Z,18.90
2019-06-10T19:51:15.285Z,19.00
2019-06-10T19:53:44.984Z,19.00
2019-06-10T19:56:16.281Z,19.00
2019-06-10T19:58:46.188Z,18.90
2019-06-10T20:01:22.422Z,18.90
2019-06-10T20:03:51.710Z,18.90
2019-06-10T20:06:21.448Z,18.80
2019-06-10T20:08:49.001Z,18.90
2019-06-10T20:11:38.365Z,18.80
2019-06-10T20:14:06.117Z,18.90
2019-06-10T20:16:37.866Z,18.90
2019-06-10T20:19:05.675Z,18.80
2019-06-10T20:21:38.095Z,18.80
2019-06-10T20:24:05.773Z,18.80
2019-06-10T20:26:38.465Z,18.80
2019-06-10T20:29:06.007Z,18.70
2019-06-10T20:31:38.022Z,18.60
2019-06-10T20:34:05.648Z,18.60
2019-06-10T20:36:35.477Z,18.60
2019-06-10T20:39:06.883Z,18.50
2019-06-10T20:41:39.149Z,18.50
2019-06-10T20:44:07.584Z,18.40
2019-06-10T20:46:41.028Z,18.30
2019-06-10T20:49:08.321Z,18.30
2019-06-10T20:51:51.998Z,18.30
2019-06-10T20:54:08.157Z,18.20
2019-06-10T20:56:40.484Z,18.20
2019-06-10T20:59:08.509Z,18.10
2019-06-10T21:01:35.677Z,18.20
2019-06-10T21:04:03.940Z,18.30
2019-06-10T21:06:33.113Z,18.30
2019-06-10T21:09:02.900Z,18.40
2019-06-10T21:11:32.341Z,18.40
2019-06-10T21:13:59.566Z,18.50
2019-06-10T21:16:32.031Z,18.50
2019-06-10T21:18:59.813Z,18.60
2019-06-10T21:21:32.639Z,18.50
2019-06-10T21:24:02.329Z,18.40
2019-06-10T21:29:26.944Z,18.30
2019-06-10T21:31:55.138Z,18.50
2019-06-10T21:34:24.687Z,18.40
2019-06-10T21:36:54.258Z,18.20
2019-06-10T21:39:21.859Z,18.10
2019-06-10T21:41:54.343Z,18.10
2019-06-10T21:44:23.160Z,18.20
2019-06-10T21:46:53.513Z,18.30
2019-06-10T21:49:23.634Z,18.30
2019-06-10T21:51:56.481Z,18.40
2019-06-10T21:54:22.504Z,18.20
2019-06-10T21:56:55.458Z,18.20
2019-06-10T21:59:23.388Z,18.20
2019-06-10T22:01:54.275Z,18.10
2019-06-10T22:04:22.459Z,18.10
2019-06-10T22:06:56.313Z,18.10
2019-06-10T22:09:23.457Z,18.00
2019-06-10T22:11:55.478Z,18.00
2019-06-10T22:14:22.578Z,17.90
2019-06-10T22:16:56.467Z,17.90
2019-06-10T22:19:23.875Z,17.90
2019-06-10T22:21:56.714Z,17.90
2019-06-10T22:24:24.034Z,17.80
2019-06-10T22:26:55.296Z,17.70
2019-06-10T22:29:23.049Z,17.70
2019-06-10T22:31:53.336Z,17.80
2019-06-10T22:34:19.802Z,17.90
2019-06-10T22:36:47.554Z,17.80
2019-06-10T22:39:16.300Z,17.80
2019-06-10T22:41:43.765Z,17.80
2019-06-10T22:44:12.675Z,17.80
2019-06-10T22:46:44.690Z,17.90
2019-06-10T22:49:13.528Z,17.90
2019-06-10T22:51:42.866Z,18.00
2019-06-10T22:54:10.265Z,17.80
2019-06-10T22:56:42.287Z,17.70
2019-06-10T22:59:08.868Z,17.60
2019-06-10T23:01:42.221Z,17.60
2019-06-10T23:04:09.148Z,17.60
2019-06-10T23:06:41.640Z,17.60
2019-06-10T23:09:08.562Z,17.60
2019-06-10T23:11:38.202Z,17.50
2019-06-10T23:14:05.929Z,17.50
2019-06-10T23:16:33.454Z,17.40
2019-06-10T23:19:03.065Z,17.40
2019-06-10T23:21:30.380Z,17.40
2019-06-10T23:24:03.385Z,17.40
2019-06-10T23:26:33.130Z,17.30
2019-06-10T23:29:03.316Z,17.30
2019-06-10T23:31:33.701Z,17.30
2019-06-10T23:34:02.943Z,17.40
2019-06-10T23:36:32.542Z,17.30
2019-06-10T23:39:04.910Z,17.20
2019-06-10T23:41:33.318Z,17.20
2019-06-10T23:44:04.905Z,17.20
2019-06-10T23:46:32.787Z,17.20
2019-06-10T23:49:04.618Z,17.20
2019-06-10T23:51:33.249Z,17.10
2019-06-10T23:54:06.303Z,17.10
2019-06-10T23:56:34.191Z,17.10
2019-06-10T23:59:06.808Z,17.10
